Stock Yards, Illinois
Current Conditions -  °F | °C
As of 12:53 AM on Thursday 18 Dec 2014 (Local Time) from KMDW Reporting Station
Overcast Overcast  
Wind Chill: 21°   Ceiling: 2400
Heat Index: 26°   Visibility: 10mi
Dew Point: 16°   Wind: 5mph
Humidity: 66%   Direction: 290°WNW
Pressure: 30.29"   Gusts: NA
Location:  41.8121°N, 87.6542°W
Report Text: KMDW 180653Z 29004KT 10SM OVC024 M03/M09 A3029 RMK AO2 SLP270 T10331089
Loading
Personal Weather Stations






























Interactive Weather Map New forecast layout! Learn more

10-Day Weather Forecast

Advertisements
Track Severe Weather on mobile